sensor_id;sensor_type;location;lat;lon;timestamp;temperature;humidity
31369;DHT22;18004;48.416;10.066;2022-07-23T00:00:53;22.40;68.00
31369;DHT22;18004;48.416;10.066;2022-07-23T00:03:19;22.50;69.00
31369;DHT22;18004;48.416;10.066;2022-07-23T00:05:45;22.60;67.60
31369;DHT22;18004;48.416;10.066;2022-07-23T00:08:10;22.60;70.30
31369;DHT22;18004;48.416;10.066;2022-07-23T00:10:37;22.60;73.30
31369;DHT22;18004;48.416;10.066;2022-07-23T00:13:02;22.50;67.70
31369;DHT22;18004;48.416;10.066;2022-07-23T00:15:29;22.50;72.20
31369;DHT22;18004;48.416;10.066;2022-07-23T00:17:55;22.50;71.30
31369;DHT22;18004;48.416;10.066;2022-07-23T00:20:21;22.40;73.30
31369;DHT22;18004;48.416;10.066;2022-07-23T00:25:13;22.30;80.70
31369;DHT22;18004;48.416;10.066;2022-07-23T00:27:39;22.30;78.90
31369;DHT22;18004;48.416;10.066;2022-07-23T00:30:05;22.20;81.40
31369;DHT22;18004;48.416;10.066;2022-07-23T00:32:31;22.20;84.80
31369;DHT22;18004;48.416;10.066;2022-07-23T00:34:57;22.10;86.60
31369;DHT22;18004;48.416;10.066;2022-07-23T00:37:23;22.20;90.40
31369;DHT22;18004;48.416;10.066;2022-07-23T00:39:49;22.20;88.30
31369;DHT22;18004;48.416;10.066;2022-07-23T00:42:14;22.10;88.30
31369;DHT22;18004;48.416;10.066;2022-07-23T00:44:40;22.00;84.50
31369;DHT22;18004;48.416;10.066;2022-07-23T00:47:06;22.00;90.00
31369;DHT22;18004;48.416;10.066;2022-07-23T00:49:32;21.90;90.20
31369;DHT22;18004;48.416;10.066;2022-07-23T00:52:01;21.90;88.10
31369;DHT22;18004;48.416;10.066;2022-07-23T00:54:27;21.80;89.80
31369;DHT22;18004;48.416;10.066;2022-07-23T00:56:54;21.80;88.80
31369;DHT22;18004;48.416;10.066;2022-07-23T00:59:20;21.80;90.50
31369;DHT22;18004;48.416;10.066;2022-07-23T01:01:46;21.80;90.40
31369;DHT22;18004;48.416;10.066;2022-07-23T01:04:15;21.80;91.00
31369;DHT22;18004;48.416;10.066;2022-07-23T01:06:40;21.80;91.40
31369;DHT22;18004;48.416;10.066;2022-07-23T01:09:07;21.80;91.40
31369;DHT22;18004;48.416;10.066;2022-07-23T01:11:37;21.80;92.00
31369;DHT22;18004;48.416;10.066;2022-07-23T01:14:14;21.70;90.90
31369;DHT22;18004;48.416;10.066;2022-07-23T01:16:41;21.70;90.60
31369;DHT22;18004;48.416;10.066;2022-07-23T01:19:07;21.70;90.60
31369;DHT22;18004;48.416;10.066;2022-07-23T01:21:41;21.60;91.80
31369;DHT22;18004;48.416;10.066;2022-07-23T01:24:09;21.60;92.40
31369;DHT22;18004;48.416;10.066;2022-07-23T01:26:35;21.60;92.30
31369;DHT22;18004;48.416;10.066;2022-07-23T01:29:01;21.40;93.40
31369;DHT22;18004;48.416;10.066;2022-07-23T01:31:27;21.20;92.40
31369;DHT22;18004;48.416;10.066;2022-07-23T01:33:53;21.00;93.90
31369;DHT22;18004;48.416;10.066;2022-07-23T01:36:19;20.80;94.80
31369;DHT22;18004;48.416;10.066;2022-07-23T01:38:45;20.90;95.40
31369;DHT22;18004;48.416;10.066;2022-07-23T01:41:11;21.00;96.80
31369;DHT22;18004;48.416;10.066;2022-07-23T01:43:37;20.90;95.30
31369;DHT22;18004;48.416;10.066;2022-07-23T01:46:03;21.00;95.80
31369;DHT22;18004;48.416;10.066;2022-07-23T01:48:29;20.90;96.30
31369;DHT22;18004;48.416;10.066;2022-07-23T01:50:54;20.90;96.90
31369;DHT22;18004;48.416;10.066;2022-07-23T01:53:20;21.00;96.90
31369;DHT22;18004;48.416;10.066;2022-07-23T01:55:46;21.00;96.90
31369;DHT22;18004;48.416;10.066;2022-07-23T01:58:12;20.80;98.60
31369;DHT22;18004;48.416;10.066;2022-07-23T02:00:37;20.80;98.30
31369;DHT22;18004;48.416;10.066;2022-07-23T02:03:03;20.80;98.10
31369;DHT22;18004;48.416;10.066;2022-07-23T02:05:29;20.70;98.70
31369;DHT22;18004;48.416;10.066;2022-07-23T02:07:58;20.50;98.70
31369;DHT22;18004;48.416;10.066;2022-07-23T02:10:25;20.60;98.40
31369;DHT22;18004;48.416;10.066;2022-07-23T02:12:50;20.70;97.70
31369;DHT22;18004;48.416;10.066;2022-07-23T02:15:16;20.80;97.50
31369;DHT22;18004;48.416;10.066;2022-07-23T02:17:42;20.90;96.90
31369;DHT22;18004;48.416;10.066;2022-07-23T02:20:09;20.80;96.10
31369;DHT22;18004;48.416;10.066;2022-07-23T02:22:36;20.60;95.60
31369;DHT22;18004;48.416;10.066;2022-07-23T02:25:03;20.40;96.10
31369;DHT22;18004;48.416;10.066;2022-07-23T02:27:29;20.40;96.90
31369;DHT22;18004;48.416;10.066;2022-07-23T02:29:55;20.40;96.70
31369;DHT22;18004;48.416;10.066;2022-07-23T02:32:20;20.50;96.70
31369;DHT22;18004;48.416;10.066;2022-07-23T02:34:49;20.60;96.80
31369;DHT22;18004;48.416;10.066;2022-07-23T02:37:15;20.50;96.30
31369;DHT22;18004;48.416;10.066;2022-07-23T02:39:41;20.50;96.70
31369;DHT22;18004;48.416;10.066;2022-07-23T02:42:07;20.60;96.70
31369;DHT22;18004;48.416;10.066;2022-07-23T02:44:33;20.70;96.80
31369;DHT22;18004;48.416;10.066;2022-07-23T02:46:59;20.70;96.70
31369;DHT22;18004;48.416;10.066;2022-07-23T02:49:25;20.60;96.80
31369;DHT22;18004;48.416;10.066;2022-07-23T02:51:54;20.50;96.70
31369;DHT22;18004;48.416;10.066;2022-07-23T02:54:20;20.50;96.40
31369;DHT22;18004;48.416;10.066;2022-07-23T02:56:45;20.50;96.70
31369;DHT22;18004;48.416;10.066;2022-07-23T02:59:11;20.50;96.70
31369;DHT22;18004;48.416;10.066;2022-07-23T03:01:37;20.50;96.90
31369;DHT22;18004;48.416;10.066;2022-07-23T03:04:03;20.60;96.90
31369;DHT22;18004;48.416;10.066;2022-07-23T03:06:29;20.50;98.20
31369;DHT22;18004;48.416;10.066;2022-07-23T03:08:54;20.60;97.80
31369;DHT22;18004;48.416;10.066;2022-07-23T03:11:20;20.60;97.40
31369;DHT22;18004;48.416;10.066;2022-07-23T03:13:46;20.60;98.10
31369;DHT22;18004;48.416;10.066;2022-07-23T03:16:12;20.50;98.50
31369;DHT22;18004;48.416;10.066;2022-07-23T03:18:38;20.60;98.30
31369;DHT22;18004;48.416;10.066;2022-07-23T03:21:03;20.50;98.00
31369;DHT22;18004;48.416;10.066;2022-07-23T03:23:29;20.40;98.90
31369;DHT22;18004;48.416;10.066;2022-07-23T03:25:55;20.30;98.50
31369;DHT22;18004;48.416;10.066;2022-07-23T03:28:21;20.20;98.30
31369;DHT22;18004;48.416;10.066;2022-07-23T03:30:47;20.00;97.60
31369;DHT22;18004;48.416;10.066;2022-07-23T03:33:18;19.90;98.20
31369;DHT22;18004;48.416;10.066;2022-07-23T03:35:45;20.00;98.30
31369;DHT22;18004;48.416;10.066;2022-07-23T03:38:12;20.00;98.10
31369;DHT22;18004;48.416;10.066;2022-07-23T03:40:38;20.00;96.70
31369;DHT22;18004;48.416;10.066;2022-07-23T03:43:04;20.00;96.80
31369;DHT22;18004;48.416;10.066;2022-07-23T03:45:30;20.10;97.00
31369;DHT22;18004;48.416;10.066;2022-07-23T03:47:56;20.20;96.80
31369;DHT22;18004;48.416;10.066;2022-07-23T03:50:22;20.10;96.20
31369;DHT22;18004;48.416;10.066;2022-07-23T03:52:48;20.10;96.60
31369;DHT22;18004;48.416;10.066;2022-07-23T03:55:14;20.10;96.80
31369;DHT22;18004;48.416;10.066;2022-07-23T03:57:40;20.00;97.60
31369;DHT22;18004;48.416;10.066;2022-07-23T04:00:07;20.00;96.50
31369;DHT22;18004;48.416;10.066;2022-07-23T04:02:35;20.00;96.90
31369;DHT22;18004;48.416;10.066;2022-07-23T04:05:01;20.00;96.50
31369;DHT22;18004;48.416;10.066;2022-07-23T04:07:27;20.10;97.40
31369;DHT22;18004;48.416;10.066;2022-07-23T04:09:53;20.10;97.20
31369;DHT22;18004;48.416;10.066;2022-07-23T04:12:19;20.00;97.40
31369;DHT22;18004;48.416;10.066;2022-07-23T04:14:45;20.00;97.90
31369;DHT22;18004;48.416;10.066;2022-07-23T04:17:11;20.00;98.40
31369;DHT22;18004;48.416;10.066;2022-07-23T04:19:38;20.00;98.80
31369;DHT22;18004;48.416;10.066;2022-07-23T04:22:10;20.00;99.40
31369;DHT22;18004;48.416;10.066;2022-07-23T04:24:36;20.00;99.60
31369;DHT22;18004;48.416;10.066;2022-07-23T04:27:03;20.00;99.80
31369;DHT22;18004;48.416;10.066;2022-07-23T04:29:29;19.90;99.90
31369;DHT22;18004;48.416;10.066;2022-07-23T04:31:55;19.80;99.90
31369;DHT22;18004;48.416;10.066;2022-07-23T04:34:20;19.80;99.90
31369;DHT22;18004;48.416;10.066;2022-07-23T04:36:47;19.70;99.90
31369;DHT22;18004;48.416;10.066;2022-07-23T04:39:13;19.60;99.90
31369;DHT22;18004;48.416;10.066;2022-07-23T04:41:39;19.60;99.90
31369;DHT22;18004;48.416;10.066;2022-07-23T04:44:05;19.50;99.90
31369;DHT22;18004;48.416;10.066;2022-07-23T04:46:31;19.60;99.90
31369;DHT22;18004;48.416;10.066;2022-07-23T04:48:57;19.60;99.90
31369;DHT22;18004;48.416;10.066;2022-07-23T04:51:22;19.70;99.80
31369;DHT22;18004;48.416;10.066;2022-07-23T04:53:48;19.70;99.70
31369;DHT22;18004;48.416;10.066;2022-07-23T04:56:14;19.70;98.80
31369;DHT22;18004;48.416;10.066;2022-07-23T04:58:40;19.80;99.20
31369;DHT22;18004;48.416;10.066;2022-07-23T05:01:05;19.90;99.70
31369;DHT22;18004;48.416;10.066;2022-07-23T05:03:32;19.90;99.60
31369;DHT22;18004;48.416;10.066;2022-07-23T05:05:57;19.80;99.80
31369;DHT22;18004;48.416;10.066;2022-07-23T05:08:23;19.80;99.90
31369;DHT22;18004;48.416;10.066;2022-07-23T05:10:49;19.90;99.90
31369;DHT22;18004;48.416;10.066;2022-07-23T05:13:15;20.00;99.90
31369;DHT22;18004;48.416;10.066;2022-07-23T05:15:42;19.90;99.40
31369;DHT22;18004;48.416;10.066;2022-07-23T05:18:08;19.80;99.90
31369;DHT22;18004;48.416;10.066;2022-07-23T05:20:34;19.90;99.90
31369;DHT22;18004;48.416;10.066;2022-07-23T05:22:59;19.90;99.90
31369;DHT22;18004;48.416;10.066;2022-07-23T05:25:25;19.90;99.90
31369;DHT22;18004;48.416;10.066;2022-07-23T05:27:51;20.00;99.90
31369;DHT22;18004;48.416;10.066;2022-07-23T05:30:17;20.00;99.90
31369;DHT22;18004;48.416;10.066;2022-07-23T05:32:43;20.00;99.90
31369;DHT22;18004;48.416;10.066;2022-07-23T05:35:09;19.90;99.90
31369;DHT22;18004;48.416;10.066;2022-07-23T05:37:35;19.90;99.90
31369;DHT22;18004;48.416;10.066;2022-07-23T05:40:05;19.90;99.90
31369;DHT22;18004;48.416;10.066;2022-07-23T05:42:34;20.00;99.90
31369;DHT22;18004;48.416;10.066;2022-07-23T05:45:00;20.00;99.90
31369;DHT22;18004;48.416;10.066;2022-07-23T05:47:26;19.80;99.90
31369;DHT22;18004;48.416;10.066;2022-07-23T05:49:51;19.70;99.90
31369;DHT22;18004;48.416;10.066;2022-07-23T05:52:17;19.80;99.90
31369;DHT22;18004;48.416;10.066;2022-07-23T05:54:43;19.80;99.90
31369;DHT22;18004;48.416;10.066;2022-07-23T05:57:09;19.80;99.90
31369;DHT22;18004;48.416;10.066;2022-07-23T05:59:34;19.90;99.90
31369;DHT22;18004;48.416;10.066;2022-07-23T06:02:00;19.90;99.90
31369;DHT22;18004;48.416;10.066;2022-07-23T06:04:26;19.90;99.90
31369;DHT22;18004;48.416;10.066;2022-07-23T06:06:52;20.00;99.90
31369;DHT22;18004;48.416;10.066;2022-07-23T06:09:18;20.00;99.90
31369;DHT22;18004;48.416;10.066;2022-07-23T06:11:43;20.00;99.90
31369;DHT22;18004;48.416;10.066;2022-07-23T06:14:09;20.10;99.90
31369;DHT22;18004;48.416;10.066;2022-07-23T06:16:35;20.20;99.90
31369;DHT22;18004;48.416;10.066;2022-07-23T06:19:01;20.20;99.90
31369;DHT22;18004;48.416;10.066;2022-07-23T06:21:27;20.00;99.90
31369;DHT22;18004;48.416;10.066;2022-07-23T06:23:52;20.00;99.90
31369;DHT22;18004;48.416;10.066;2022-07-23T06:26:18;20.10;99.90
31369;DHT22;18004;48.416;10.066;2022-07-23T06:28:44;20.20;99.90
31369;DHT22;18004;48.416;10.066;2022-07-23T06:31:10;20.20;99.90
31369;DHT22;18004;48.416;10.066;2022-07-23T06:33:36;20.20;99.90
31369;DHT22;18004;48.416;10.066;2022-07-23T06:36:01;20.20;99.90
31369;DHT22;18004;48.416;10.066;2022-07-23T06:38:30;20.30;99.90
31369;DHT22;18004;48.416;10.066;2022-07-23T06:40:55;20.20;99.90
31369;DHT22;18004;48.416;10.066;2022-07-23T06:43:21;20.30;99.90
31369;DHT22;18004;48.416;10.066;2022-07-23T06:45:47;20.40;99.90
31369;DHT22;18004;48.416;10.066;2022-07-23T06:48:13;20.50;99.90
31369;DHT22;18004;48.416;10.066;2022-07-23T06:50:38;20.60;99.90
31369;DHT22;18004;48.416;10.066;2022-07-23T06:53:04;20.70;99.90
31369;DHT22;18004;48.416;10.066;2022-07-23T06:55:30;20.70;99.90
31369;DHT22;18004;48.416;10.066;2022-07-23T06:57:56;20.80;99.80
31369;DHT22;18004;48.416;10.066;2022-07-23T07:00:22;20.90;99.00
31369;DHT22;18004;48.416;10.066;2022-07-23T07:02:48;20.90;98.60
31369;DHT22;18004;48.416;10.066;2022-07-23T07:05:13;20.90;98.10
31369;DHT22;18004;48.416;10.066;2022-07-23T07:07:39;20.90;97.10
31369;DHT22;18004;48.416;10.066;2022-07-23T07:10:05;20.90;97.30
31369;DHT22;18004;48.416;10.066;2022-07-23T07:12:31;20.90;96.90
31369;DHT22;18004;48.416;10.066;2022-07-23T07:14:57;21.00;96.40
31369;DHT22;18004;48.416;10.066;2022-07-23T07:17:23;21.20;95.30
31369;DHT22;18004;48.416;10.066;2022-07-23T07:19:49;21.40;94.40
31369;DHT22;18004;48.416;10.066;2022-07-23T07:22:15;21.50;93.80
31369;DHT22;18004;48.416;10.066;2022-07-23T07:24:40;21.60;92.90
31369;DHT22;18004;48.416;10.066;2022-07-23T07:27:06;21.80;93.00
31369;DHT22;18004;48.416;10.066;2022-07-23T07:29:32;21.90;91.40
31369;DHT22;18004;48.416;10.066;2022-07-23T07:31:58;22.00;91.20
31369;DHT22;18004;48.416;10.066;2022-07-23T07:34:23;22.10;90.10
31369;DHT22;18004;48.416;10.066;2022-07-23T07:36:50;22.20;89.50
31369;DHT22;18004;48.416;10.066;2022-07-23T07:39:15;22.60;90.20
31369;DHT22;18004;48.416;10.066;2022-07-23T07:41:41;22.80;86.60
31369;DHT22;18004;48.416;10.066;2022-07-23T07:44:07;22.90;80.30
31369;DHT22;18004;48.416;10.066;2022-07-23T07:46:42;23.00;78.70
31369;DHT22;18004;48.416;10.066;2022-07-23T07:49:14;23.30;77.90
31369;DHT22;18004;48.416;10.066;2022-07-23T07:51:45;23.60;68.50
31369;DHT22;18004;48.416;10.066;2022-07-23T07:54:14;23.80;67.70
31369;DHT22;18004;48.416;10.066;2022-07-23T07:56:48;23.70;68.60
31369;DHT22;18004;48.416;10.066;2022-07-23T07:59:14;23.90;67.10
31369;DHT22;18004;48.416;10.066;2022-07-23T08:01:40;24.00;62.20
31369;DHT22;18004;48.416;10.066;2022-07-23T08:04:06;23.80;64.80
31369;DHT22;18004;48.416;10.066;2022-07-23T08:06:35;24.10;62.90
31369;DHT22;18004;48.416;10.066;2022-07-23T08:09:04;24.50;61.10
31369;DHT22;18004;48.416;10.066;2022-07-23T08:11:29;24.30;53.20
31369;DHT22;18004;48.416;10.066;2022-07-23T08:14:45;24.50;57.30
31369;DHT22;18004;48.416;10.066;2022-07-23T08:17:19;24.70;51.00
31369;DHT22;18004;48.416;10.066;2022-07-23T08:19:45;25.10;50.00
31369;DHT22;18004;48.416;10.066;2022-07-23T08:22:20;25.20;43.30
31369;DHT22;18004;48.416;10.066;2022-07-23T08:24:48;25.30;38.70
31369;DHT22;18004;48.416;10.066;2022-07-23T08:27:14;25.20;37.10
31369;DHT22;18004;48.416;10.066;2022-07-23T08:29:40;25.30;35.90
31369;DHT22;18004;48.416;10.066;2022-07-23T08:32:06;25.20;35.40
31369;DHT22;18004;48.416;10.066;2022-07-23T08:34:41;25.30;39.50
31369;DHT22;18004;48.416;10.066;2022-07-23T08:37:14;25.60;34.50
31369;DHT22;18004;48.416;10.066;2022-07-23T08:39:40;25.70;34.50
31369;DHT22;18004;48.416;10.066;2022-07-23T08:42:07;25.90;34.30
31369;DHT22;18004;48.416;10.066;2022-07-23T08:44:34;25.80;32.20
31369;DHT22;18004;48.416;10.066;2022-07-23T08:47:07;25.70;31.90
31369;DHT22;18004;48.416;10.066;2022-07-23T08:49:42;25.70;35.60
31369;DHT22;18004;48.416;10.066;2022-07-23T08:52:13;25.90;34.50
31369;DHT22;18004;48.416;10.066;2022-07-23T08:54:50;25.80;35.30
31369;DHT22;18004;48.416;10.066;2022-07-23T08:57:18;25.80;35.20
31369;DHT22;18004;48.416;10.066;2022-07-23T08:59:44;25.50;36.80
31369;DHT22;18004;48.416;10.066;2022-07-23T09:02:11;25.40;40.40
31369;DHT22;18004;48.416;10.066;2022-07-23T09:04:37;25.40;39.50
31369;DHT22;18004;48.416;10.066;2022-07-23T09:07:03;25.20;39.40
31369;DHT22;18004;48.416;10.066;2022-07-23T09:09:29;24.90;44.90
31369;DHT22;18004;48.416;10.066;2022-07-23T09:12:09;24.90;44.90
31369;DHT22;18004;48.416;10.066;2022-07-23T09:14:43;24.80;45.70
31369;DHT22;18004;48.416;10.066;2022-07-23T09:17:19;25.00;45.70
31369;DHT22;18004;48.416;10.066;2022-07-23T09:20:15;25.30;46.00
31369;DHT22;18004;48.416;10.066;2022-07-23T09:22:52;25.50;43.20
31369;DHT22;18004;48.416;10.066;2022-07-23T09:25:43;25.40;41.70
31369;DHT22;18004;48.416;10.066;2022-07-23T09:28:09;25.50;43.30
31369;DHT22;18004;48.416;10.066;2022-07-23T09:30:35;25.30;41.00
31369;DHT22;18004;48.416;10.066;2022-07-23T09:35:55;25.20;45.10
31369;DHT22;18004;48.416;10.066;2022-07-23T09:38:53;25.50;41.30
31369;DHT22;18004;48.416;10.066;2022-07-23T09:43:56;25.70;39.70
31369;DHT22;18004;48.416;10.066;2022-07-23T09:46:26;25.80;40.10
31369;DHT22;18004;48.416;10.066;2022-07-23T09:48:54;25.90;39.10
31369;DHT22;18004;48.416;10.066;2022-07-23T09:51:23;26.00;39.30
31369;DHT22;18004;48.416;10.066;2022-07-23T09:53:54;26.10;39.10
31369;DHT22;18004;48.416;10.066;2022-07-23T09:59:57;26.50;35.30
31369;DHT22;18004;48.416;10.066;2022-07-23T10:03:05;26.60;33.20
31369;DHT22;18004;48.416;10.066;2022-07-23T10:06:13;26.30;35.10
31369;DHT22;18004;48.416;10.066;2022-07-23T10:08:58;26.60;37.10
31369;DHT22;18004;48.416;10.066;2022-07-23T10:11:31;26.70;31.70
31369;DHT22;18004;48.416;10.066;2022-07-23T10:18:27;27.20;31.30
31369;DHT22;18004;48.416;10.066;2022-07-23T10:21:39;27.40;28.40
31369;DHT22;18004;48.416;10.066;2022-07-23T10:25:05;27.40;25.60
31369;DHT22;18004;48.416;10.066;2022-07-23T10:45:41;27.30;27.80
31369;DHT22;18004;48.416;10.066;2022-07-23T10:57:09;27.50;26.50
31369;DHT22;18004;48.416;10.066;2022-07-23T11:05:53;27.70;24.10
31369;DHT22;18004;48.416;10.066;2022-07-23T11:08:46;27.90;23.40
31369;DHT22;18004;48.416;10.066;2022-07-23T11:16:23;28.50;22.10
31369;DHT22;18004;48.416;10.066;2022-07-23T12:14:01;29.00;22.40
31369;DHT22;18004;48.416;10.066;2022-07-23T12:16:27;27.00;49.30
31369;DHT22;18004;48.416;10.066;2022-07-23T12:18:56;25.40;66.20
31369;DHT22;18004;48.416;10.066;2022-07-23T12:21:51;24.50;86.10
31369;DHT22;18004;48.416;10.066;2022-07-23T12:24:11;24.40;88.30
31369;DHT22;18004;48.416;10.066;2022-07-23T12:30:42;25.20;90.90
31369;DHT22;18004;48.416;10.066;2022-07-23T12:33:30;25.20;87.20
31369;DHT22;18004;48.416;10.066;2022-07-23T12:40:30;25.40;89.00
31369;DHT22;18004;48.416;10.066;2022-07-23T12:43:49;25.70;89.60
31369;DHT22;18004;48.416;10.066;2022-07-23T12:46:26;25.50;81.60
31369;DHT22;18004;48.416;10.066;2022-07-23T12:49:12;25.60;85.60
31369;DHT22;18004;48.416;10.066;2022-07-23T12:52:39;25.70;83.00
31369;DHT22;18004;48.416;10.066;2022-07-23T12:59:30;25.70;73.80
31369;DHT22;18004;48.416;10.066;2022-07-23T13:01:57;26.20;65.50
31369;DHT22;18004;48.416;10.066;2022-07-23T13:08:16;26.50;66.60
31369;DHT22;18004;48.416;10.066;2022-07-23T13:14:58;26.60;60.90
31369;DHT22;18004;48.416;10.066;2022-07-23T14:56:13;27.20;30.50
31369;DHT22;18004;48.416;10.066;2022-07-23T15:14:32;27.30;33.30
31369;DHT22;18004;48.416;10.066;2022-07-23T15:17:51;27.10;37.40
31369;DHT22;18004;48.416;10.066;2022-07-23T15:24:51;26.90;44.70
31369;DHT22;18004;48.416;10.066;2022-07-23T15:27:23;26.70;47.90
31369;DHT22;18004;48.416;10.066;2022-07-23T15:29:49;26.60;51.60
31369;DHT22;18004;48.416;10.066;2022-07-23T15:32:21;26.60;53.50
31369;DHT22;18004;48.416;10.066;2022-07-23T15:35:20;26.40;53.20
31369;DHT22;18004;48.416;10.066;2022-07-23T15:38:39;26.50;51.50
31369;DHT22;18004;48.416;10.066;2022-07-23T15:41:29;26.40;54.50
31369;DHT22;18004;48.416;10.066;2022-07-23T15:51:51;26.40;50.70
31369;DHT22;18004;48.416;10.066;2022-07-23T15:54:26;26.40;48.20
31369;DHT22;18004;48.416;10.066;2022-07-23T15:57:17;26.40;49.70
31369;DHT22;18004;48.416;10.066;2022-07-23T15:59:59;26.30;51.00
31369;DHT22;18004;48.416;10.066;2022-07-23T16:02:34;26.30;52.20
31369;DHT22;18004;48.416;10.066;2022-07-23T16:13:13;26.50;46.10
31369;DHT22;18004;48.416;10.066;2022-07-23T18:09:10;26.20;29.90
31369;DHT22;18004;48.416;10.066;2022-07-23T18:36:22;25.90;42.20
31369;DHT22;18004;48.416;10.066;2022-07-23T18:38:54;25.70;45.50
31369;DHT22;18004;48.416;10.066;2022-07-23T18:41:25;25.60;47.50
31369;DHT22;18004;48.416;10.066;2022-07-23T18:44:12;25.40;49.30
31369;DHT22;18004;48.416;10.066;2022-07-23T18:46:43;25.00;48.80
31369;DHT22;18004;48.416;10.066;2022-07-23T18:49:15;24.80;49.60
31369;DHT22;18004;48.416;10.066;2022-07-23T18:51:51;24.60;51.10
31369;DHT22;18004;48.416;10.066;2022-07-23T18:54:50;24.40;53.10
31369;DHT22;18004;48.416;10.066;2022-07-23T18:57:15;24.30;54.00
31369;DHT22;18004;48.416;10.066;2022-07-23T18:59:47;24.20;55.50
31369;DHT22;18004;48.416;10.066;2022-07-23T19:02:22;24.00;56.40
31369;DHT22;18004;48.416;10.066;2022-07-23T19:05:09;23.80;58.70
31369;DHT22;18004;48.416;10.066;2022-07-23T19:07:38;23.70;60.80
31369;DHT22;18004;48.416;10.066;2022-07-23T19:10:05;23.70;62.00
31369;DHT22;18004;48.416;10.066;2022-07-23T19:12:32;23.60;63.10
31369;DHT22;18004;48.416;10.066;2022-07-23T19:14:58;23.60;63.50
31369;DHT22;18004;48.416;10.066;2022-07-23T19:17:47;23.60;63.60
31369;DHT22;18004;48.416;10.066;2022-07-23T19:20:45;23.70;63.90
31369;DHT22;18004;48.416;10.066;2022-07-23T19:23:28;23.70;64.30
31369;DHT22;18004;48.416;10.066;2022-07-23T19:26:13;23.60;66.00
31369;DHT22;18004;48.416;10.066;2022-07-23T19:28:42;23.40;68.30
31369;DHT22;18004;48.416;10.066;2022-07-23T19:31:11;23.20;69.60
31369;DHT22;18004;48.416;10.066;2022-07-23T19:33:42;23.30;69.40
31369;DHT22;18004;48.416;10.066;2022-07-23T19:36:11;23.20;70.40
31369;DHT22;18004;48.416;10.066;2022-07-23T19:38:37;23.20;70.70
31369;DHT22;18004;48.416;10.066;2022-07-23T19:41:06;23.00;72.50
31369;DHT22;18004;48.416;10.066;2022-07-23T19:43:34;23.00;73.50
31369;DHT22;18004;48.416;10.066;2022-07-23T19:46:00;23.00;75.70
31369;DHT22;18004;48.416;10.066;2022-07-23T19:48:27;23.00;74.30
31369;DHT22;18004;48.416;10.066;2022-07-23T19:50:54;23.10;74.90
31369;DHT22;18004;48.416;10.066;2022-07-23T19:53:58;23.10;75.10
31369;DHT22;18004;48.416;10.066;2022-07-23T19:57:06;23.10;75.50
31369;DHT22;18004;48.416;10.066;2022-07-23T19:59:42;23.00;74.70
31369;DHT22;18004;48.416;10.066;2022-07-23T20:02:08;22.90;75.00
31369;DHT22;18004;48.416;10.066;2022-07-23T20:04:37;22.90;75.80
31369;DHT22;18004;48.416;10.066;2022-07-23T20:07:06;23.00;75.90
31369;DHT22;18004;48.416;10.066;2022-07-23T20:10:12;23.00;75.30
31369;DHT22;18004;48.416;10.066;2022-07-23T20:13:08;23.00;76.00
31369;DHT22;18004;48.416;10.066;2022-07-23T20:15:38;23.00;75.70
31369;DHT22;18004;48.416;10.066;2022-07-23T20:18:07;23.00;75.60
31369;DHT22;18004;48.416;10.066;2022-07-23T20:20:33;23.00;74.90
31369;DHT22;18004;48.416;10.066;2022-07-23T20:23:03;23.00;75.50
31369;DHT22;18004;48.416;10.066;2022-07-23T20:25:29;22.80;76.20
31369;DHT22;18004;48.416;10.066;2022-07-23T20:27:55;22.60;79.80
31369;DHT22;18004;48.416;10.066;2022-07-23T20:30:24;22.40;83.60
31369;DHT22;18004;48.416;10.066;2022-07-23T20:32:50;22.20;86.00
31369;DHT22;18004;48.416;10.066;2022-07-23T20:35:16;22.00;88.20
31369;DHT22;18004;48.416;10.066;2022-07-23T20:37:42;22.00;88.20
31369;DHT22;18004;48.416;10.066;2022-07-23T20:40:09;21.90;88.10
31369;DHT22;18004;48.416;10.066;2022-07-23T20:42:34;21.80;88.00
31369;DHT22;18004;48.416;10.066;2022-07-23T20:45:01;21.80;88.00
31369;DHT22;18004;48.416;10.066;2022-07-23T20:47:27;21.80;88.00
31369;DHT22;18004;48.416;10.066;2022-07-23T20:49:53;21.70;87.20
31369;DHT22;18004;48.416;10.066;2022-07-23T20:52:22;21.80;85.60
31369;DHT22;18004;48.416;10.066;2022-07-23T20:54:48;21.80;84.00
31369;DHT22;18004;48.416;10.066;2022-07-23T20:57:17;21.80;82.50
31369;DHT22;18004;48.416;10.066;2022-07-23T21:02:20;21.90;81.50
31369;DHT22;18004;48.416;10.066;2022-07-23T21:05:06;21.90;80.40
31369;DHT22;18004;48.416;10.066;2022-07-23T21:07:33;22.00;80.70
31369;DHT22;18004;48.416;10.066;2022-07-23T21:10:06;22.00;80.10
31369;DHT22;18004;48.416;10.066;2022-07-23T21:12:41;22.00;81.00
31369;DHT22;18004;48.416;10.066;2022-07-23T21:15:07;21.80;82.60
31369;DHT22;18004;48.416;10.066;2022-07-23T21:17:33;21.60;84.20
31369;DHT22;18004;48.416;10.066;2022-07-23T21:19:59;21.50;85.20
31369;DHT22;18004;48.416;10.066;2022-07-23T21:22:25;21.40;86.10
31369;DHT22;18004;48.416;10.066;2022-07-23T21:24:51;21.30;87.60
31369;DHT22;18004;48.416;10.066;2022-07-23T21:27:17;21.40;87.70
31369;DHT22;18004;48.416;10.066;2022-07-23T21:29:43;21.30;87.60
31369;DHT22;18004;48.416;10.066;2022-07-23T21:32:09;21.40;87.70
31369;DHT22;18004;48.416;10.066;2022-07-23T21:34:35;21.40;87.70
31369;DHT22;18004;48.416;10.066;2022-07-23T21:37:01;21.40;87.70
31369;DHT22;18004;48.416;10.066;2022-07-23T21:39:27;21.30;88.50
31369;DHT22;18004;48.416;10.066;2022-07-23T21:41:53;21.20;88.50
31369;DHT22;18004;48.416;10.066;2022-07-23T21:44:19;21.20;90.00
31369;DHT22;18004;48.416;10.066;2022-07-23T21:46:45;21.10;90.10
31369;DHT22;18004;48.416;10.066;2022-07-23T21:49:10;21.20;90.80
31369;DHT22;18004;48.416;10.066;2022-07-23T21:51:36;21.20;90.50
31369;DHT22;18004;48.416;10.066;2022-07-23T21:54:03;21.20;90.40
31369;DHT22;18004;48.416;10.066;2022-07-23T21:56:29;21.20;90.30
31369;DHT22;18004;48.416;10.066;2022-07-23T21:58:55;21.30;90.20
31369;DHT22;18004;48.416;10.066;2022-07-23T22:01:21;21.30;90.00
31369;DHT22;18004;48.416;10.066;2022-07-23T22:03:47;21.30;88.70
31369;DHT22;18004;48.416;10.066;2022-07-23T22:06:13;21.30;89.20
31369;DHT22;18004;48.416;10.066;2022-07-23T22:08:39;21.30;90.00
31369;DHT22;18004;48.416;10.066;2022-07-23T22:11:04;21.30;87.60
31369;DHT22;18004;48.416;10.066;2022-07-23T22:13:30;21.30;88.40
31369;DHT22;18004;48.416;10.066;2022-07-23T22:16:03;21.30;89.00
31369;DHT22;18004;48.416;10.066;2022-07-23T22:18:31;21.40;89.40